Time;durP1;ratioP1;P1;durP2;ratioP2;P2;SDS_P1;SDS_P2;PMS_P1;PMS_P2;Temp;Humidity;BMP_temperature;BMP_pressure;BME280_temperature;BME280_humidity;BME280_pressure;Samples;Min_cycle;Max_cycle;Signal;HPM_P1;HPM_P2
2023/01/25 00:01:51;;;;;;;8.38;5.20;;;5.70;99.90;;;;;;5091801;28;20035;-71
2023/01/25 00:04:22;;;;;;;14.32;8.57;;;5.60;99.90;;;;;;5099520;28;20024;-71
2023/01/25 00:06:48;;;;;;;9.10;4.85;;;5.50;99.90;;;;;;5094890;28;20042;-72
2023/01/25 00:09:14;;;;;;;10.15;6.03;;;5.40;99.90;;;;;;5094708;28;20031;-72
2023/01/25 00:11:40;;;;;;;5.15;2.55;;;5.50;99.90;;;;;;5096613;28;20082;-71
2023/01/25 00:14:06;;;;;;;3.90;2.08;;;5.50;99.90;;;;;;5096391;28;20036;-72
2023/01/25 00:16:32;;;;;;;5.38;2.33;;;5.70;99.90;;;;;;5099972;28;20063;-71
2023/01/25 00:18:58;;;;;;;4.90;2.50;;;5.80;99.90;;;;;;5104213;28;20051;-71
2023/01/25 00:21:25;;;;;;;6.45;3.15;;;5.80;99.90;;;;;;5105490;28;20054;-71
2023/01/25 00:23:51;;;;;;;5.47;2.88;;;5.80;99.90;;;;;;5099982;28;20036;-72
2023/01/25 00:26:18;;;;;;;6.55;3.10;;;5.70;99.90;;;;;;5103812;28;20443;-72
2023/01/25 00:28:49;;;;;;;7.57;3.85;;;5.70;99.90;;;;;;5105348;28;20020;-71
2023/01/25 00:31:21;;;;;;;5.35;3.05;;;5.80;99.90;;;;;;5099879;28;20030;-72
2023/01/25 00:34:04;;;;;;;9.32;4.20;;;5.70;99.90;;;;;;5103604;28;20032;-71
2023/01/25 00:36:40;;;;;;;9.77;5.25;;;5.50;99.90;;;;;;5098466;28;20056;-72
2023/01/25 00:39:10;;;;;;;9.70;5.35;;;5.30;99.90;;;;;;5100528;28;20032;-71
2023/01/25 00:41:36;;;;;;;14.27;7.30;;;5.30;99.90;;;;;;5101396;28;20030;-71
2023/01/25 00:44:02;;;;;;;15.70;6.85;;;5.30;99.90;;;;;;5102603;28;20031;-71
2023/01/25 00:46:28;;;;;;;11.35;5.93;;;5.20;99.90;;;;;;5099533;28;20031;-72
2023/01/25 00:48:54;;;;;;;7.00;3.97;;;5.10;99.90;;;;;;5102200;28;20028;-71
2023/01/25 00:51:21;;;;;;;6.18;3.33;;;5.10;99.90;;;;;;5099947;28;20020;-71
2023/01/25 00:53:46;;;;;;;6.15;3.00;;;5.20;99.90;;;;;;5097794;28;20409;-72
2023/01/25 00:56:12;;;;;;;5.22;2.80;;;5.40;99.90;;;;;;5101649;28;20016;-71
2023/01/25 00:58:39;;;;;;;6.88;3.13;;;5.70;99.90;;;;;;5100994;28;20731;-71
2023/01/25 01:01:05;;;;;;;6.38;3.97;;;5.70;99.90;;;;;;5099731;28;20020;-71
2023/01/25 01:03:30;;;;;;;7.70;3.20;;;5.90;99.90;;;;;;5100233;28;20101;-71
2023/01/25 01:06:05;;;;;;;4.97;2.45;;;5.90;99.90;;;;;;5095945;28;20562;-71
2023/01/25 01:08:37;;;;;;;9.73;2.83;;;5.70;99.90;;;;;;5102619;28;20140;-71
2023/01/25 01:11:05;;;;;;;4.47;1.92;;;5.60;99.90;;;;;;5101155;28;20062;-72
2023/01/25 01:13:31;;;;;;;4.25;2.13;;;5.60;99.90;;;;;;5102159;28;20103;-72
2023/01/25 01:16:01;;;;;;;5.25;2.80;;;5.60;99.90;;;;;;5100865;28;20110;-71
2023/01/25 01:18:27;;;;;;;5.63;2.88;;;5.50;99.90;;;;;;5100163;28;20422;-71
2023/01/25 01:20:53;;;;;;;3.60;2.00;;;5.70;99.90;;;;;;5110142;27;20023;-71
2023/01/25 01:23:20;;;;;;;8.95;3.28;;;5.60;99.90;;;;;;5106312;27;20030;-72
2023/01/25 01:25:45;;;;;;;6.43;2.53;;;5.60;99.90;;;;;;5104037;28;20032;-71
2023/01/25 01:28:12;;;;;;;5.13;2.53;;;5.70;99.90;;;;;;5099794;28;20101;-72
2023/01/25 01:30:38;;;;;;;5.90;2.72;;;5.70;99.90;;;;;;5106318;28;20050;-72
2023/01/25 01:33:04;;;;;;;5.38;2.72;;;5.40;99.90;;;;;;5108909;28;20032;-71
2023/01/25 01:35:31;;;;;;;6.63;2.83;;;5.40;99.90;;;;;;5102522;28;20073;-71
2023/01/25 01:37:57;;;;;;;4.50;2.45;;;5.40;99.90;;;;;;5106543;28;20122;-71
2023/01/25 01:40:23;;;;;;;4.95;2.50;;;5.40;99.90;;;;;;5103043;27;20110;-72
2023/01/25 01:43:14;;;;;;;5.22;2.15;;;5.50;99.90;;;;;;5101390;28;20492;-71
2023/01/25 01:45:46;;;;;;;7.95;3.08;;;5.50;99.90;;;;;;5098687;28;20031;-72
2023/01/25 01:48:39;;;;;;;7.05;2.92;;;5.50;99.90;;;;;;5105930;28;20028;-72
2023/01/25 01:51:17;;;;;;;5.32;2.53;;;5.50;99.90;;;;;;5101736;28;20120;-71
2023/01/25 01:53:59;;;;;;;7.18;2.83;;;5.50;99.90;;;;;;5107786;28;20394;-71
2023/01/25 01:56:37;;;;;;;7.80;4.05;;;5.40;99.90;;;;;;5099415;28;20036;-71
2023/01/25 01:59:05;;;;;;;8.48;4.00;;;5.10;99.90;;;;;;5100135;28;20035;-72
2023/01/25 02:01:31;;;;;;;8.55;3.97;;;5.00;99.90;;;;;;5101251;28;20111;-71
2023/01/25 02:03:57;;;;;;;7.82;3.63;;;5.00;99.90;;;;;;5104789;28;20076;-71
2023/01/25 02:06:51;;;;;;;6.30;3.20;;;5.10;99.90;;;;;;5102719;28;20046;-72
2023/01/25 02:09:21;;;;;;;5.63;2.90;;;5.30;99.90;;;;;;5077533;27;20044;-71
2023/01/25 02:11:48;;;;;;;7.22;3.03;;;5.30;99.90;;;;;;5100017;28;20470;-71
2023/01/25 02:14:16;;;;;;;5.70;3.35;;;5.20;99.90;;;;;;5103331;28;20086;-71
2023/01/25 02:16:42;;;;;;;5.82;3.17;;;5.20;99.90;;;;;;5105163;27;20028;-71
2023/01/25 02:19:16;;;;;;;4.72;2.38;;;5.20;99.90;;;;;;5099913;28;20525;-71
2023/01/25 02:21:46;;;;;;;5.93;3.45;;;5.20;99.90;;;;;;5103230;28;20473;-71
2023/01/25 02:24:22;;;;;;;11.27;3.33;;;5.00;99.90;;;;;;5098066;28;20157;-71
2023/01/25 02:26:47;;;;;;;10.30;4.30;;;5.00;99.90;;;;;;5107890;28;20039;-72
2023/01/25 02:29:14;;;;;;;5.63;3.03;;;5.10;99.90;;;;;;5105182;28;20028;-71
2023/01/25 02:31:43;;;;;;;5.97;2.90;;;5.10;99.90;;;;;;5099786;28;20058;-72
2023/01/25 02:34:09;;;;;;;6.45;3.00;;;5.20;99.90;;;;;;5102689;28;20032;-71
2023/01/25 02:36:35;;;;;;;7.72;3.15;;;5.20;99.90;;;;;;5082875;28;20058;-72
2023/01/25 02:39:07;;;;;;;5.20;2.47;;;5.10;99.90;;;;;;5105198;28;20024;-71
2023/01/25 02:41:37;;;;;;;7.00;2.90;;;5.10;99.90;;;;;;5103262;28;20111;-71
2023/01/25 02:44:25;;;;;;;5.70;2.90;;;5.20;99.90;;;;;;5103587;28;20039;-71
2023/01/25 02:46:51;;;;;;;5.43;2.70;;;5.20;99.90;;;;;;5102723;28;20120;-71
2023/01/25 02:49:17;;;;;;;7.97;3.53;;;5.30;99.90;;;;;;5106324;28;20493;-71
2023/01/25 02:51:49;;;;;;;5.47;2.58;;;5.40;99.90;;;;;;5102229;28;20039;-72
2023/01/25 02:54:17;;;;;;;6.72;2.85;;;5.50;99.90;;;;;;5101611;28;20020;-71
2023/01/25 02:56:43;;;;;;;4.78;2.67;;;5.50;99.90;;;;;;5106001;28;20065;-72
2023/01/25 02:59:12;;;;;;;4.88;2.63;;;5.40;99.90;;;;;;5098872;28;20032;-72
2023/01/25 03:01:39;;;;;;;5.13;2.65;;;5.20;99.90;;;;;;5101808;28;20024;-71
2023/01/25 03:04:05;;;;;;;5.55;2.72;;;5.30;99.90;;;;;;5101118;28;20382;-72
2023/01/25 03:06:31;;;;;;;4.85;2.50;;;5.10;99.90;;;;;;5101183;28;20291;-72
2023/01/25 03:08:57;;;;;;;5.13;2.60;;;5.20;99.90;;;;;;5103209;28;20062;-72
2023/01/25 03:11:23;;;;;;;8.95;3.00;;;5.30;99.90;;;;;;5101933;28;20047;-72
2023/01/25 03:13:49;;;;;;;8.07;2.95;;;5.30;99.90;;;;;;5103378;28;20098;-72
2023/01/25 03:16:15;;;;;;;4.50;2.78;;;5.20;99.90;;;;;;5102713;28;20016;-72
2023/01/25 03:18:41;;;;;;;5.47;2.78;;;5.10;99.90;;;;;;5097622;28;20053;-71
2023/01/25 03:21:20;;;;;;;4.32;2.28;;;4.90;99.90;;;;;;5102093;27;20111;-71
2023/01/25 03:23:47;;;;;;;6.22;3.10;;;4.70;99.90;;;;;;5104543;28;20035;-71
2023/01/25 03:26:15;;;;;;;7.95;3.08;;;4.80;99.90;;;;;;5101653;28;20509;-71
2023/01/25 03:28:42;;;;;;;5.95;2.25;;;4.70;99.90;;;;;;5101897;28;20042;-71
2023/01/25 03:31:10;;;;;;;6.30;2.35;;;4.70;99.90;;;;;;5100961;28;20031;-71
2023/01/25 03:33:36;;;;;;;5.93;2.22;;;4.50;99.90;;;;;;5102198;28;20103;-71
2023/01/25 03:36:03;;;;;;;4.15;2.25;;;4.50;99.90;;;;;;5111697;28;20389;-71
2023/01/25 03:38:29;;;;;;;4.93;2.67;;;4.30;99.90;;;;;;5106157;27;20028;-71
2023/01/25 03:40:54;;;;;;;5.07;2.70;;;4.20;99.90;;;;;;5101664;28;21049;-71
2023/01/25 03:43:21;;;;;;;6.80;2.70;;;4.10;99.90;;;;;;5100902;28;20023;-71
2023/01/25 03:45:55;;;;;;;5.70;2.80;;;4.20;99.90;;;;;;5103731;28;20090;-71
2023/01/25 03:48:21;;;;;;;7.85;2.90;;;4.20;99.90;;;;;;5100697;28;20028;-71
2023/01/25 03:50:52;;;;;;;5.20;2.63;;;4.40;99.90;;;;;;5101445;28;20024;-72
2023/01/25 03:53:28;;;;;;;6.63;3.65;;;4.60;99.90;;;;;;5093714;28;20028;-71
2023/01/25 03:56:07;;;;;;;6.60;3.20;;;4.70;99.90;;;;;;5105540;28;20024;-71
2023/01/25 03:58:33;;;;;;;6.65;3.08;;;4.70;99.90;;;;;;5103713;28;20027;-72
2023/01/25 04:01:00;;;;;;;5.00;3.33;;;4.70;99.90;;;;;;5100061;28;20489;-70
2023/01/25 04:03:28;;;;;;;6.65;3.08;;;4.50;99.90;;;;;;5103451;28;20023;-70
2023/01/25 04:05:54;;;;;;;5.75;2.92;;;4.30;99.90;;;;;;5092922;28;20036;-70
2023/01/25 04:08:21;;;;;;;6.72;3.05;;;4.10;99.90;;;;;;5097227;28;20020;-69
2023/01/25 04:11:00;;;;;;;6.55;3.25;;;4.40;99.90;;;;;;5089280;28;20024;-70
2023/01/25 04:13:27;;;;;;;5.90;2.78;;;4.40;99.90;;;;;;5092339;28;20038;-70
2023/01/25 04:15:53;;;;;;;5.43;2.78;;;4.30;99.90;;;;;;5101556;28;20020;-70
2023/01/25 04:18:19;;;;;;;5.10;2.53;;;4.40;99.90;;;;;;5097190;28;20032;-70
2023/01/25 04:20:45;;;;;;;7.72;3.10;;;4.20;99.90;;;;;;5075282;28;20085;-70
2023/01/25 04:23:11;;;;;;;6.28;3.08;;;4.30;99.90;;;;;;5092509;28;20032;-70
2023/01/25 04:25:38;;;;;;;5.85;3.55;;;4.40;99.90;;;;;;5095681;28;20035;-70
2023/01/25 04:28:04;;;;;;;5.22;2.58;;;4.10;99.90;;;;;;5098470;28;20074;-70
2023/01/25 04:30:29;;;;;;;4.60;2.85;;;3.90;99.90;;;;;;5102056;28;20035;-70
2023/01/25 04:32:55;;;;;;;5.65;2.60;;;4.00;99.90;;;;;;5098272;28;20034;-70
2023/01/25 04:35:21;;;;;;;6.97;2.90;;;4.30;99.90;;;;;;5097505;28;20031;-70
2023/01/25 04:37:57;;;;;;;6.88;3.40;;;4.30;99.90;;;;;;5092654;28;20048;-70
2023/01/25 04:40:23;;;;;;;7.93;3.08;;;4.30;99.90;;;;;;5090453;28;20028;-71
2023/01/25 04:42:49;;;;;;;5.07;2.67;;;4.20;99.90;;;;;;5099273;28;20385;-70
2023/01/25 04:45:14;;;;;;;5.72;2.80;;;3.90;99.90;;;;;;5094279;28;20044;-70
2023/01/25 04:47:40;;;;;;;4.07;2.25;;;4.00;99.90;;;;;;5098126;28;20067;-70
2023/01/25 04:50:06;;;;;;;6.95;2.40;;;3.90;99.90;;;;;;5099760;28;20126;-70
2023/01/25 04:52:31;;;;;;;5.07;2.38;;;3.90;99.90;;;;;;5094450;28;20532;-70
2023/01/25 04:54:57;;;;;;;5.90;2.42;;;3.80;99.90;;;;;;5097278;28;20511;-70
2023/01/25 04:57:23;;;;;;;5.63;2.00;;;3.80;99.90;;;;;;5104350;28;20039;-70
2023/01/25 04:59:48;;;;;;;6.10;2.70;;;3.60;99.90;;;;;;5098777;28;20485;-70
2023/01/25 05:02:14;;;;;;;3.88;2.10;;;3.90;99.90;;;;;;5091399;28;20432;-70
2023/01/25 05:04:40;;;;;;;6.38;3.10;;;3.90;99.90;;;;;;5096368;27;20603;-70
2023/01/25 05:07:05;;;;;;;4.80;2.47;;;4.00;99.90;;;;;;5078085;27;20048;-70
2023/01/25 05:09:31;;;;;;;4.53;2.45;;;3.90;99.90;;;;;;5100921;28;20034;-70
2023/01/25 05:11:57;;;;;;;6.00;2.75;;;3.80;99.90;;;;;;5101238;27;20115;-70
2023/01/25 05:14:22;;;;;;;6.03;2.63;;;3.80;99.90;;;;;;5095279;27;20870;-70
2023/01/25 05:16:48;;;;;;;6.60;2.78;;;3.80;99.90;;;;;;5093214;28;20060;-70
2023/01/25 05:19:14;;;;;;;5.63;2.75;;;3.50;99.90;;;;;;5098150;28;20020;-70
2023/01/25 05:21:57;;;;;;;5.03;2.63;;;3.40;99.90;;;;;;5090928;28;20031;-70
2023/01/25 05:24:31;;;;;;;6.07;3.30;;;3.60;99.90;;;;;;5096325;28;20035;-70
2023/01/25 05:27:02;;;;;;;6.00;2.80;;;3.70;99.90;;;;;;5094523;28;20096;-70
2023/01/25 05:29:36;;;;;;;6.25;3.22;;;3.70;99.90;;;;;;5093392;28;20023;-71
2023/01/25 05:32:04;;;;;;;6.85;2.92;;;3.90;99.90;;;;;;5095517;28;20051;-70
2023/01/25 05:34:30;;;;;;;4.70;2.50;;;4.20;99.90;;;;;;5094424;28;20023;-70
2023/01/25 05:36:56;;;;;;;5.00;2.30;;;4.40;99.90;;;;;;5104677;28;20052;-70
2023/01/25 05:39:21;;;;;;;4.57;2.30;;;4.20;99.90;;;;;;5099533;28;20080;-70
2023/01/25 05:41:47;;;;;;;6.85;2.30;;;4.10;99.90;;;;;;5095869;28;20373;-70
2023/01/25 05:44:13;;;;;;;4.78;2.30;;;4.00;99.90;;;;;;5097763;28;20030;-70
2023/01/25 05:46:38;;;;;;;5.05;2.38;;;4.00;99.90;;;;;;5100294;28;20039;-70
2023/01/25 05:49:04;;;;;;;11.60;2.60;;;4.00;99.90;;;;;;5094073;28;20028;-70
2023/01/25 05:51:30;;;;;;;5.03;2.20;;;3.80;99.90;;;;;;5095956;28;20024;-70
2023/01/25 05:53:56;;;;;;;8.32;2.55;;;3.90;99.90;;;;;;5096963;27;20713;-70
2023/01/25 05:56:22;;;;;;;4.55;2.22;;;3.90;99.90;;;;;;5099344;28;20103;-69
2023/01/25 05:58:52;;;;;;;3.97;1.88;;;3.90;99.90;;;;;;5097345;28;20023;-70
2023/01/25 06:01:18;;;;;;;5.20;2.50;;;4.10;99.90;;;;;;5092072;28;20043;-70
2023/01/25 06:03:45;;;;;;;5.30;2.67;;;4.10;99.90;;;;;;5097937;28;20031;-70
2023/01/25 06:06:10;;;;;;;4.38;2.33;;;3.80;99.90;;;;;;5095727;28;20034;-70
2023/01/25 06:08:36;;;;;;;4.65;1.90;;;3.70;99.90;;;;;;5097359;28;20028;-70
2023/01/25 06:11:06;;;;;;;6.18;2.60;;;3.70;99.90;;;;;;5096789;28;20015;-70
2023/01/25 06:13:32;;;;;;;5.80;2.95;;;3.90;99.90;;;;;;5095911;27;20084;-70
2023/01/25 06:15:58;;;;;;;4.95;2.55;;;4.10;99.90;;;;;;5095604;28;20043;-70
2023/01/25 06:18:23;;;;;;;4.00;2.38;;;4.10;99.90;;;;;;5097892;28;20036;-70
2023/01/25 06:20:49;;;;;;;5.90;2.10;;;4.10;99.90;;;;;;5100772;28;20035;-70
2023/01/25 06:23:15;;;;;;;4.47;2.38;;;3.90;99.90;;;;;;5093279;28;20111;-70
2023/01/25 06:25:41;;;;;;;6.80;2.80;;;3.90;99.90;;;;;;5096459;28;20500;-70
2023/01/25 06:28:07;;;;;;;5.47;2.70;;;4.00;99.90;;;;;;5103065;28;20027;-69
2023/01/25 06:30:33;;;;;;;4.32;2.70;;;4.00;99.90;;;;;;5100278;28;20112;-70
2023/01/25 06:32:59;;;;;;;5.70;2.65;;;4.00;99.90;;;;;;5091216;27;20062;-70
2023/01/25 06:35:25;;;;;;;6.72;3.03;;;4.00;99.90;;;;;;5095218;27;20070;-69
2023/01/25 06:37:54;;;;;;;5.53;3.00;;;4.10;99.90;;;;;;5088857;28;20044;-69
2023/01/25 06:40:20;;;;;;;6.35;3.05;;;3.90;99.90;;;;;;5098567;28;20038;-69
2023/01/25 06:42:46;;;;;;;6.55;3.15;;;4.00;99.90;;;;;;5102580;28;20024;-69
2023/01/25 06:45:11;;;;;;;7.32;3.20;;;3.80;99.90;;;;;;5098061;28;20604;-69
2023/01/25 06:47:38;;;;;;;5.38;3.03;;;3.70;99.90;;;;;;5100322;28;20028;-69
2023/01/25 06:50:04;;;;;;;5.43;2.92;;;3.90;99.90;;;;;;5092833;28;20564;-70
2023/01/25 06:52:30;;;;;;;5.40;2.55;;;4.00;99.90;;;;;;5093940;28;20106;-69
2023/01/25 06:54:56;;;;;;;6.28;2.83;;;4.00;99.90;;;;;;5094453;28;20028;-69
2023/01/25 06:57:22;;;;;;;6.63;2.95;;;4.00;99.90;;;;;;5095460;28;20042;-68
2023/01/25 06:59:48;;;;;;;3.92;2.58;;;4.00;99.90;;;;;;5096364;28;20035;-69
2023/01/25 07:02:14;;;;;;;4.75;2.25;;;4.00;99.90;;;;;;5094606;28;20031;-69
2023/01/25 07:04:41;;;;;;;4.60;2.55;;;4.00;99.90;;;;;;5093836;28;20389;-69
2023/01/25 07:07:09;;;;;;;5.38;2.40;;;4.00;99.90;;;;;;5092984;28;20039;-69
2023/01/25 07:09:35;;;;;;;4.72;2.33;;;4.00;99.90;;;;;;5094880;28;20115;-69
2023/01/25 07:12:03;;;;;;;4.57;2.30;;;4.10;99.90;;;;;;5101004;28;20104;-69
2023/01/25 07:14:29;;;;;;;3.83;1.98;;;4.20;99.90;;;;;;5097073;28;20143;-69
2023/01/25 07:16:56;;;;;;;5.65;2.70;;;4.00;99.90;;;;;;5092148;28;20059;-69
2023/01/25 07:19:21;;;;;;;4.55;2.00;;;4.00;99.90;;;;;;5089950;28;20035;-69
2023/01/25 07:21:47;;;;;;;4.03;2.10;;;3.90;99.90;;;;;;5095686;28;20027;-69
2023/01/25 07:24:15;;;;;;;5.45;2.50;;;4.00;99.90;;;;;;5095520;28;20035;-69
2023/01/25 07:26:41;;;;;;;6.82;3.15;;;4.10;99.90;;;;;;5091928;28;20587;-69
2023/01/25 07:29:12;;;;;;;5.53;2.70;;;4.20;99.90;;;;;;5094056;28;20047;-69
2023/01/25 07:31:37;;;;;;;8.57;2.42;;;4.20;99.90;;;;;;5096085;28;20080;-69
2023/01/25 07:34:03;;;;;;;5.93;3.00;;;4.40;99.90;;;;;;5090046;28;20031;-69
2023/01/25 07:36:29;;;;;;;7.40;2.95;;;4.40;99.90;;;;;;5094019;28;20083;-69
2023/01/25 07:38:56;;;;;;;6.22;2.17;;;4.60;99.90;;;;;;5088478;28;20458;-70
2023/01/25 07:41:23;;;;;;;6.05;2.70;;;4.70;99.90;;;;;;5098737;28;20366;-72
2023/01/25 07:43:49;;;;;;;5.90;2.97;;;4.80;99.90;;;;;;5095859;28;20039;-71
2023/01/25 07:46:16;;;;;;;5.00;2.75;;;4.80;99.90;;;;;;5089606;28;20036;-73
2023/01/25 07:48:49;;;;;;;5.25;2.42;;;4.80;99.90;;;;;;5093598;28;20023;-73
2023/01/25 07:51:23;;;;;;;4.43;2.33;;;4.80;99.90;;;;;;5100276;28;20050;-73
2023/01/25 07:54:00;;;;;;;4.82;2.72;;;4.80;99.90;;;;;;5090472;28;20074;-73
2023/01/25 07:56:31;;;;;;;5.07;2.83;;;4.80;99.90;;;;;;5089225;28;20114;-72
2023/01/25 07:58:58;;;;;;;6.80;3.85;;;4.70;99.90;;;;;;5088793;28;20032;-73
2023/01/25 08:01:26;;;;;;;6.50;3.92;;;4.50;99.90;;;;;;5091576;28;20042;-72
2023/01/25 08:03:55;;;;;;;6.93;3.78;;;4.30;99.90;;;;;;5087384;28;20584;-73
2023/01/25 08:06:34;;;;;;;9.55;3.83;;;4.30;99.90;;;;;;5088671;28;20035;-73
2023/01/25 08:09:03;;;;;;;6.45;4.00;;;4.30;99.90;;;;;;5086891;28;20067;-72
2023/01/25 08:11:31;;;;;;;7.85;3.72;;;4.40;99.90;;;;;;5088591;28;20375;-72
2023/01/25 08:13:57;;;;;;;8.50;4.22;;;4.40;99.90;;;;;;5091559;28;20070;-72
2023/01/25 08:16:26;;;;;;;7.60;4.13;;;4.40;99.90;;;;;;5092413;28;20062;-73
2023/01/25 08:18:57;;;;;;;5.32;3.55;;;4.40;99.90;;;;;;5091743;28;20665;-73
2023/01/25 08:21:27;;;;;;;9.32;3.80;;;4.60;99.90;;;;;;5092162;28;20141;-73
2023/01/25 08:23:53;;;;;;;5.38;3.25;;;4.80;99.90;;;;;;5088688;28;20039;-73
2023/01/25 08:26:20;;;;;;;6.30;2.70;;;4.70;99.90;;;;;;5097877;28;20044;-72
2023/01/25 08:28:46;;;;;;;5.47;2.85;;;4.90;99.90;;;;;;5093537;28;20041;-73
2023/01/25 08:31:33;;;;;;;8.75;4.43;;;5.10;99.90;;;;;;5089027;28;20118;-73
2023/01/25 08:33:59;;;;;;;9.32;4.95;;;4.80;99.90;;;;;;5094881;28;20028;-73
2023/01/25 08:36:29;;;;;;;7.30;4.82;;;4.70;99.90;;;;;;5087824;28;20036;-73
2023/01/25 08:39:00;;;;;;;11.35;5.40;;;4.50;99.90;;;;;;5093817;28;20032;-73
2023/01/25 08:41:28;;;;;;;12.57;5.40;;;4.60;99.90;;;;;;5094803;28;20027;-71
2023/01/25 08:43:55;;;;;;;11.32;5.57;;;4.70;99.90;;;;;;5093976;28;20023;-72
2023/01/25 08:46:22;;;;;;;12.57;5.88;;;4.70;99.90;;;;;;5097299;28;20039;-72
2023/01/25 08:48:47;;;;;;;8.48;4.15;;;4.70;99.90;;;;;;5091756;28;20032;-70
2023/01/25 08:51:15;;;;;;;9.52;4.72;;;4.70;99.90;;;;;;5094870;28;20028;-71
2023/01/25 08:53:41;;;;;;;9.38;4.68;;;4.70;99.90;;;;;;5097811;28;20544;-71
2023/01/25 08:56:12;;;;;;;8.88;4.72;;;4.80;99.90;;;;;;5094880;28;20025;-71
2023/01/25 08:58:40;;;;;;;11.18;4.85;;;4.70;99.90;;;;;;5092492;28;20032;-72
2023/01/25 09:01:09;;;;;;;7.95;3.72;;;4.70;99.90;;;;;;5092504;28;20038;-71
2023/01/25 09:03:45;;;;;;;6.97;4.38;;;4.60;99.90;;;;;;5095334;28;20043;-72
2023/01/25 09:06:12;;;;;;;12.45;6.32;;;4.80;99.90;;;;;;5095171;28;20834;-71
2023/01/25 09:08:38;;;;;;;12.40;6.75;;;4.80;99.90;;;;;;5092051;28;20118;-71
2023/01/25 09:11:14;;;;;;;8.32;5.30;;;4.60;99.90;;;;;;5091496;28;20055;-72
2023/01/25 09:13:42;;;;;;;8.95;4.55;;;4.80;99.90;;;;;;5095392;28;20035;-72
2023/01/25 09:16:11;;;;;;;17.73;9.60;;;4.80;99.90;;;;;;5094697;28;20024;-71
2023/01/25 09:18:38;;;;;;;8.43;5.03;;;4.80;99.90;;;;;;5091871;28;20036;-71
2023/01/25 09:21:06;;;;;;;9.25;4.32;;;4.80;99.90;;;;;;5090104;28;20118;-72
2023/01/25 09:23:32;;;;;;;7.95;4.05;;;4.90;99.90;;;;;;5094209;28;20115;-71
2023/01/25 09:25:59;;;;;;;7.35;3.88;;;4.80;99.90;;;;;;5092051;28;20115;-71
2023/01/25 09:28:26;;;;;;;8.88;3.42;;;4.70;99.90;;;;;;5094857;28;20492;-71
2023/01/25 09:31:00;;;;;;;6.25;3.17;;;4.70;99.90;;;;;;5092132;28;20031;-72
2023/01/25 09:33:27;;;;;;;4.15;2.83;;;4.70;99.90;;;;;;5091918;28;20102;-71
2023/01/25 09:35:52;;;;;;;7.25;3.20;;;4.70;99.90;;;;;;5095314;28;20097;-71
2023/01/25 09:38:18;;;;;;;7.53;2.83;;;4.80;99.90;;;;;;5092874;28;20753;-71
2023/01/25 09:41:09;;;;;;;7.15;3.35;;;4.70;99.90;;;;;;5094302;28;20064;-71
2023/01/25 09:47:44;;;;;;;5.10;2.85;;;4.80;99.90;;;;;;5089332;28;20050;-71
2023/01/25 09:50:38;;;;;;;5.20;3.08;;;4.90;99.90;;;;;;5079566;28;20056;-71
2023/01/25 09:53:15;;;;;;;5.03;2.70;;;4.90;99.90;;;;;;5107173;28;20027;-71
2023/01/25 09:55:43;;;;;;;6.30;2.80;;;4.90;99.90;;;;;;5107563;28;20024;-71
2023/01/25 09:58:17;;;;;;;6.15;3.38;;;4.80;99.90;;;;;;5106568;28;20045;-71
2023/01/25 10:00:48;;;;;;;9.00;4.15;;;4.70;99.90;;;;;;5107591;28;20031;-71
2023/01/25 10:03:52;;;;;;;7.93;3.95;;;4.70;99.90;;;;;;5107604;28;20152;-71
2023/01/25 10:06:22;;;;;;;7.70;4.18;;;4.80;99.90;;;;;;5091064;28;20097;-71
2023/01/25 10:09:10;;;;;;;7.18;3.65;;;4.80;99.90;;;;;;5106984;28;20028;-71
2023/01/25 10:11:37;;;;;;;7.72;3.20;;;4.80;99.90;;;;;;5106107;28;20031;-71
2023/01/25 10:14:14;;;;;;;7.07;2.83;;;4.80;99.90;;;;;;5107529;28;20031;-71
2023/01/25 10:16:46;;;;;;;7.15;3.65;;;4.80;99.90;;;;;;5106411;28;20019;-71
2023/01/25 10:19:31;;;;;;;5.00;2.80;;;4.90;99.90;;;;;;5107839;28;20032;-71
2023/01/25 10:22:07;;;;;;;6.78;3.30;;;5.00;99.90;;;;;;5107059;28;20493;-71
2023/01/25 10:24:36;;;;;;;5.82;3.30;;;4.90;99.90;;;;;;5107151;28;20031;-71
2023/01/25 10:27:26;;;;;;;5.65;2.75;;;4.90;99.90;;;;;;5106264;28;20450;-71
2023/01/25 10:29:58;;;;;;;5.78;2.85;;;5.00;99.90;;;;;;5106536;28;20577;-71
2023/01/25 10:32:31;;;;;;;7.88;3.42;;;5.10;99.90;;;;;;5105511;28;20036;-71
2023/01/25 10:35:25;;;;;;;7.47;2.95;;;5.10;99.90;;;;;;5105662;27;20347;-71
2023/01/25 10:37:51;;;;;;;5.70;2.70;;;5.20;99.90;;;;;;5102454;28;20043;-71
2023/01/25 10:40:22;;;;;;;7.13;3.50;;;5.30;99.90;;;;;;5098678;28;20110;-72
2023/01/25 10:43:12;;;;;;;6.70;3.15;;;5.30;99.90;;;;;;5099009;28;20023;-71
2023/01/25 10:45:38;;;;;;;7.03;3.55;;;5.40;99.90;;;;;;5093274;28;20031;-71
2023/01/25 10:48:08;;;;;;;5.68;2.85;;;5.50;99.90;;;;;;5101848;28;20040;-71
2023/01/25 10:50:45;;;;;;;5.90;3.28;;;5.60;99.90;;;;;;5094031;28;20393;-71
2023/01/25 10:53:31;;;;;;;6.32;3.20;;;5.70;99.90;;;;;;5094890;28;20039;-71
2023/01/25 10:56:09;;;;;;;5.60;3.20;;;5.80;99.90;;;;;;5094455;28;20191;-71
2023/01/25 10:58:40;;;;;;;8.50;3.55;;;6.00;99.90;;;;;;5093512;28;20035;-71
2023/01/25 11:01:11;;;;;;;8.95;4.10;;;6.20;99.90;;;;;;5092594;28;20032;-71
2023/01/25 11:03:43;;;;;;;8.40;5.22;;;6.30;99.90;;;;;;5092939;28;20028;-71
2023/01/25 11:06:09;;;;;;;20.92;9.73;;;6.20;99.90;;;;;;5094275;28;20039;-70
2023/01/25 11:08:40;;;;;;;6.05;3.33;;;6.20;99.90;;;;;;5090204;28;20036;-71
2023/01/25 11:11:37;;;;;;;45.05;18.63;;;6.10;99.90;;;;;;5099049;28;20860;-70
2023/01/25 11:14:15;;;;;;;94.10;42.20;;;6.20;99.90;;;;;;5081683;28;20067;-70
2023/01/25 11:16:46;;;;;;;16.48;7.68;;;6.20;99.90;;;;;;5094351;28;20032;-70
2023/01/25 11:19:24;;;;;;;83.53;36.65;;;6.30;99.90;;;;;;5092737;28;20036;-70
2023/01/25 11:21:52;;;;;;;40.88;18.42;;;6.50;99.90;;;;;;5089612;28;20067;-71
2023/01/25 11:24:17;;;;;;;144.32;69.68;;;6.70;99.90;;;;;;5098187;28;20031;-70
2023/01/25 11:26:44;;;;;;;82.68;40.30;;;6.70;99.90;;;;;;5091808;28;20042;-70
2023/01/25 11:29:20;;;;;;;39.15;21.20;;;6.70;99.90;;;;;;5098055;28;20126;-70
2023/01/25 11:31:53;;;;;;;15.43;8.23;;;6.80;99.90;;;;;;5090177;28;20447;-72
2023/01/25 11:34:24;;;;;;;8.95;5.55;;;7.00;99.90;;;;;;5093594;28;20070;-71
2023/01/25 11:37:26;;;;;;;9.98;6.57;;;7.00;99.90;;;;;;5086784;28;20048;-71
2023/01/25 11:39:54;;;;;;;11.45;7.55;;;6.90;99.90;;;;;;5079834;28;20378;-72
2023/01/25 11:42:32;;;;;;;8.90;4.68;;;7.00;99.90;;;;;;5090235;28;20020;-73
2023/01/25 11:45:04;;;;;;;10.48;4.32;;;7.20;99.90;;;;;;5093763;28;20469;-72
2023/01/25 11:47:53;;;;;;;7.18;3.88;;;7.40;99.90;;;;;;5092965;28;20409;-72
2023/01/25 11:50:35;;;;;;;7.93;4.35;;;7.40;99.90;;;;;;5088132;28;20028;-72
2023/01/25 11:53:10;;;;;;;4.82;2.75;;;7.50;99.90;;;;;;5092246;28;20099;-72
2023/01/25 11:56:02;;;;;;;8.65;4.57;;;7.50;99.90;;;;;;5098258;28;20529;-71
2023/01/25 11:58:52;;;;;;;7.45;3.75;;;7.60;99.90;;;;;;5091038;28;20024;-72
2023/01/25 12:01:36;;;;;;;9.50;5.15;;;7.70;99.90;;;;;;5097608;28;20541;-71
2023/01/25 12:04:26;;;;;;;6.03;3.43;;;7.60;99.90;;;;;;5098821;28;20019;-71
2023/01/25 12:07:03;;;;;;;18.55;10.95;;;7.80;99.90;;;;;;5099862;28;20074;-72
2023/01/25 12:09:35;;;;;;;24.35;14.63;;;7.90;99.90;;;;;;5089383;28;20036;-73
2023/01/25 12:12:14;;;;;;;6.57;4.07;;;8.10;99.90;;;;;;5099027;28;20028;-72
2023/01/25 12:14:48;;;;;;;7.88;4.25;;;7.90;99.90;;;;;;5092657;28;20027;-72
2023/01/25 12:17:43;;;;;;;9.25;5.03;;;8.00;99.90;;;;;;5098601;28;20928;-72
2023/01/25 12:20:30;;;;;;;5.82;3.30;;;8.00;99.90;;;;;;5077265;28;20464;-72
2023/01/25 12:23:23;;;;;;;7.47;3.72;;;8.00;99.90;;;;;;5088813;28;20030;-72
2023/01/25 12:26:10;;;;;;;6.88;4.15;;;8.30;99.90;;;;;;5092163;28;20020;-72
2023/01/25 12:28:49;;;;;;;5.85;3.63;;;8.40;99.90;;;;;;5093088;28;20693;-72
2023/01/25 12:31:35;;;;;;;8.45;3.67;;;8.50;99.90;;;;;;5092312;28;20461;-72
2023/01/25 12:34:11;;;;;;;10.10;3.25;;;8.40;99.50;;;;;;5090537;28;20020;-72
2023/01/25 12:36:44;;;;;;;5.57;3.30;;;8.40;99.60;;;;;;5089989;28;20043;-72
2023/01/25 12:39:20;;;;;;;13.38;6.28;;;8.50;99.90;;;;;;5091295;28;20039;-71
2023/01/25 12:41:53;;;;;;;11.00;6.15;;;8.80;99.90;;;;;;5096065;28;20048;-72
2023/01/25 12:44:29;;;;;;;7.65;4.28;;;8.80;99.40;;;;;;5100163;28;20027;-72
2023/01/25 12:47:04;;;;;;;7.15;3.45;;;8.70;99.30;;;;;;5097572;28;20036;-71
2023/01/25 12:49:41;;;;;;;;;;;8.70;99.50;;;;;;5103351;28;20028;-72
2023/01/25 12:52:21;;;;;;;5.22;2.75;;;8.60;98.60;;;;;;5098437;28;19908;-72
2023/01/25 12:54:47;;;;;;;5.70;2.83;;;8.50;99.00;;;;;;5096061;28;20032;-72
2023/01/25 12:57:47;;;;;;;4.75;2.47;;;8.50;98.20;;;;;;5096335;28;20035;-72
2023/01/25 13:00:27;;;;;;;5.20;2.95;;;8.60;99.40;;;;;;5089314;28;20107;-71
2023/01/25 13:03:26;;;;;;;124.70;53.35;;;8.70;98.60;;;;;;5092377;28;20059;-72
2023/01/25 13:06:24;;;;;;;31.63;13.57;;;8.80;98.60;;;;;;5098479;28;21562;-72
2023/01/25 13:09:12;;;;;;;18.02;9.60;;;8.80;98.30;;;;;;5098140;28;20035;-72
2023/01/25 13:11:41;;;;;;;9.73;4.22;;;9.00;98.80;;;;;;5094573;28;20038;-72
2023/01/25 13:14:19;;;;;;;17.20;9.07;;;8.90;98.50;;;;;;5098565;28;20031;-71
2023/01/25 13:16:52;;;;;;;19.80;9.25;;;8.80;98.20;;;;;;5097810;28;20103;-72
2023/01/25 13:19:30;;;;;;;31.45;16.52;;;9.10;99.00;;;;;;5106798;28;20055;-72